Airport View

Enter AWOS ICAO identifier for current METAR.

ex. KFNL

KEZS 120646Z AUTO 00000KT 10SM BKN065 BKN075 M14/M19 A3045 RMK AO2 T11431192

12 Dec 2019 06:40

Frequency: 118.65

Phone: 715-526-2967

Other Area AWOS: KCLI - KGRB - KOCQ - KATW

TAF KGRB 120520Z 1206/1306 18002KT P6SM BKN080 FM121200 11005KT 6SM -SN OVC060 FM121500 12007KT 4SM -SN OVC026 FM121600 16008KT 1 1/2SM -SN OVC022 FM122200 23006KT 4SM -SN OVC011 FM130100 25004KT P6SM OVC020